Sand Key, FL current weather conditions

sailwx.info

Wind from 360 at 6 knots gusting 8

Air temperature 29.4° C
Dewpoint 22.5° C

Last reported at 2017-Jun-27 22:50 UTC.
Time now 2017-Jun-28 00:18 UTC

Location: N 24°27' W 081°53'.
View on Google Maps.

See reports from other nearby stations

  
Tides and Currents Weather Stations Pressure Air Temp Water Temp Dewpoint Dewpoint Depression Visibility Wind Speed Wind Dir Waves Ship Positions
date/time (UTC)wind fromknots sea level pressurealtimeterstation pressurevisibilityair tempwater tempwave heightnotes
2017-Jun-27 22:50 360 6 gusting 8 29.4
2017-Jun-27 21:50 010 6 gusting 7 29.3
2017-Jun-27 20:50 360 5 gusting 5 29.0
2017-Jun-27 19:50 330 4 gusting 5 28.9
2017-Jun-27 18:50 310 1 gusting 2 28.6
2017-Jun-27 17:50 200 2 gusting 4 28.2
2017-Jun-27 16:50 180 6 gusting 6 28.2
2017-Jun-27 14:50 160 8 gusting 11 28.1
2017-Jun-27 13:50 150 7 gusting 8 28.2
2017-Jun-27 12:50 130 8 gusting 9 28.0
2017-Jun-27 11:50 130 7 gusting 8 27.9
2017-Jun-27 10:50 140 6 gusting 6 27.7
2017-Jun-27 09:50 140 7 gusting 9 27.8
2017-Jun-27 08:50 130 11 gusting 12 27.9
2017-Jun-27 07:50 130 11 gusting 12 27.9
2017-Jun-27 06:50 120 12 gusting 13 27.9
2017-Jun-27 05:50 120 11 gusting 13 28.0
2017-Jun-27 04:50 110 9 gusting 12 28.0
2017-Jun-27 03:50 120 11 gusting 13 28.1
2017-Jun-27 02:50 120 12 gusting 13 28.1
2017-Jun-27 01:50 120 12 gusting 13 28.2
2017-Jun-27 00:50 100 8 gusting 9 28.2
2017-Jun-26 23:50 120 7 gusting 9 28.5
2017-Jun-26 22:50 110 6 gusting 6 28.7
2017-Jun-26 21:50 100 6 gusting 6 28.4
2017-Jun-26 20:50 140 6 gusting 7 28.2
2017-Jun-26 19:50 150 4 gusting 6 28.3
2017-Jun-26 18:50 150 9 gusting 11 28.3
2017-Jun-26 17:50 130 8 gusting 11 28.3
2017-Jun-26 16:50 140 8 gusting 9 28.3
2017-Jun-26 15:50 130 9 gusting 11 28.3
2017-Jun-26 14:50 140 11 gusting 12 28.1
2017-Jun-26 13:50 140 12 gusting 13 28.2
2017-Jun-26 12:50 150 13 gusting 18 28.0
2017-Jun-26 12:04 130 14 gusting 17 28.2
2017-Jun-26 11:59 130 15 gusting 18 28.2
2017-Jun-26 11:54 130 17 gusting 18 28.1
2017-Jun-26 11:49 130 15 gusting 17 28.0
2017-Jun-26 11:44 140 14 gusting 18 28.1
2017-Jun-26 10:50 130 13 gusting 15 28.0
2017-Jun-26 09:50 120 14 gusting 17 28.0
2017-Jun-26 08:50 120 14 gusting 18 28.0
2017-Jun-26 07:50 120 14 gusting 17 27.8
2017-Jun-26 06:50 120 15 gusting 17 27.9
2017-Jun-26 05:50 110 15 gusting 18 27.9
2017-Jun-26 04:50 110 13 gusting 15 27.9
2017-Jun-26 03:50 110 13 gusting 15 28.0
2017-Jun-26 02:50 100 13 gusting 15 28.1
2017-Jun-26 01:50 100 13 gusting 15 28.0
2017-Jun-26 00:50 110 13 gusting 14 28.1